createdAt,value
2023-03-27T00:01:05.068Z,97696.00
2023-03-27T00:03:32.163Z,97693.00
2023-03-27T00:06:09.295Z,97699.00
2023-03-27T00:08:36.599Z,97694.00
2023-03-27T00:11:04.057Z,97714.00
2023-03-27T00:13:31.072Z,97717.00
2023-03-27T00:15:58.990Z,97720.00
2023-03-27T00:18:26.594Z,97709.00
2023-03-27T00:20:54.150Z,97722.00
2023-03-27T00:23:21.170Z,97703.00
2023-03-27T00:25:49.203Z,97718.00
2023-03-27T00:28:17.780Z,97712.00
2023-03-27T00:30:45.207Z,97724.00
2023-03-27T00:33:16.125Z,97733.00
2023-03-27T00:35:47.120Z,97736.00
2023-03-27T00:38:14.401Z,97742.00
2023-03-27T00:40:42.204Z,97753.00
2023-03-27T00:43:32.587Z,97749.00
2023-03-27T00:46:20.141Z,97773.00
2023-03-27T00:48:48.309Z,97757.00
2023-03-27T00:51:15.791Z,97760.00
2023-03-27T00:53:42.749Z,97778.00
2023-03-27T00:56:09.775Z,97787.00
2023-03-27T00:58:45.862Z,97772.00
2023-03-27T01:01:14.769Z,97761.00
2023-03-27T01:03:42.834Z,97762.00
2023-03-27T01:06:10.043Z,97782.00
2023-03-27T01:08:36.940Z,97762.00
2023-03-27T01:11:09.577Z,97782.00
2023-03-27T01:14:19.766Z,97786.00
2023-03-27T01:17:20.293Z,97779.00
2023-03-27T01:19:47.229Z,97770.00
2023-03-27T01:22:57.987Z,97777.00
2023-03-27T01:26:14.565Z,97788.00
2023-03-27T01:29:07.578Z,97775.00
2023-03-27T01:32:02.444Z,97783.00
2023-03-27T01:35:08.656Z,97770.00
2023-03-27T01:38:13.162Z,97777.00
2023-03-27T01:40:47.392Z,97771.00
2023-03-27T01:43:23.575Z,97777.00
2023-03-27T01:46:07.317Z,97777.00
2023-03-27T01:48:44.970Z,97784.00
2023-03-27T01:51:40.129Z,97773.00
2023-03-27T01:54:26.155Z,97779.00
2023-03-27T01:57:01.203Z,97781.00
2023-03-27T01:59:28.922Z,97776.00
2023-03-27T02:02:07.726Z,97758.00
2023-03-27T02:04:48.939Z,97758.00
2023-03-27T02:07:20.172Z,97765.00
2023-03-27T02:09:50.081Z,97762.00
2023-03-27T02:12:24.022Z,97744.00
2023-03-27T02:15:23.289Z,97756.00
2023-03-27T02:18:01.887Z,97766.00
2023-03-27T02:20:28.933Z,97808.00
2023-03-27T02:22:55.854Z,97802.00
2023-03-27T02:25:33.888Z,97798.00
2023-03-27T02:28:31.075Z,97770.00
2023-03-27T02:31:34.132Z,97751.00
2023-03-27T02:34:25.737Z,97756.00
2023-03-27T02:37:06.397Z,97772.00
2023-03-27T02:39:47.613Z,97783.00
2023-03-27T02:42:28.676Z,97803.00
2023-03-27T02:45:16.264Z,97782.00
2023-03-27T02:47:50.954Z,97778.00
2023-03-27T02:50:47.008Z,97800.00
2023-03-27T02:53:14.845Z,97789.00
2023-03-27T02:55:45.218Z,97797.00
2023-03-27T02:58:16.681Z,97809.00
2023-03-27T03:00:44.595Z,97815.00
2023-03-27T03:03:38.294Z,97806.00
2023-03-27T03:06:05.588Z,97799.00
2023-03-27T03:08:34.995Z,97831.00
2023-03-27T03:11:07.876Z,97826.00
2023-03-27T03:13:34.765Z,97805.00
2023-03-27T03:16:01.805Z,97814.00
2023-03-27T03:18:28.686Z,97814.00
2023-03-27T03:20:55.874Z,97833.00
2023-03-27T03:23:23.100Z,97844.00
2023-03-27T03:25:50.249Z,97840.00
2023-03-27T03:28:17.094Z,97828.00
2023-03-27T03:30:46.963Z,97825.00
2023-03-27T03:33:13.955Z,97850.00
2023-03-27T03:35:41.175Z,97837.00
2023-03-27T03:38:08.122Z,97817.00
2023-03-27T03:40:35.106Z,97836.00
2023-03-27T03:43:01.983Z,97850.00
2023-03-27T03:45:28.951Z,97856.00
2023-03-27T03:47:55.915Z,97836.00
2023-03-27T03:50:22.906Z,97846.00
2023-03-27T03:52:49.775Z,97837.00
2023-03-27T03:55:16.844Z,97829.00
2023-03-27T03:57:46.791Z,97849.00
2023-03-27T04:00:14.226Z,97858.00
2023-03-27T04:02:41.232Z,97859.00
2023-03-27T04:05:10.130Z,97866.00
2023-03-27T04:07:37.681Z,97876.00
2023-03-27T04:10:05.145Z,97862.00
2023-03-27T04:12:32.425Z,97851.00
2023-03-27T04:14:59.448Z,97840.00
2023-03-27T04:17:26.568Z,97875.00
2023-03-27T04:20:05.600Z,97885.00
2023-03-27T04:22:32.826Z,97879.00
2023-03-27T04:24:59.703Z,97828.00
2023-03-27T04:27:26.583Z,97841.00
2023-03-27T04:29:53.551Z,97868.00
2023-03-27T04:32:20.534Z,97910.00
2023-03-27T04:34:47.722Z,97914.00
2023-03-27T04:37:14.680Z,97869.00
2023-03-27T04:39:41.618Z,97868.00
2023-03-27T04:42:09.570Z,97869.00
2023-03-27T04:44:36.732Z,97861.00
2023-03-27T04:47:06.350Z,97926.00
2023-03-27T04:49:34.633Z,97876.00
2023-03-27T04:52:01.590Z,97920.00
2023-03-27T04:54:28.522Z,97871.00
2023-03-27T04:56:55.374Z,97893.00
2023-03-27T04:59:22.407Z,97881.00
2023-03-27T05:01:49.280Z,97936.00
2023-03-27T05:04:16.652Z,97915.00
2023-03-27T05:06:43.585Z,97903.00
2023-03-27T05:09:10.485Z,97936.00
2023-03-27T05:11:37.439Z,97918.00
2023-03-27T05:14:04.341Z,97912.00
2023-03-27T05:16:31.226Z,97926.00
2023-03-27T05:18:58.170Z,97912.00
2023-03-27T05:21:25.069Z,97943.00
2023-03-27T05:23:52.048Z,97939.00
2023-03-27T05:26:18.991Z,97954.00
2023-03-27T05:28:45.922Z,97934.00
2023-03-27T05:31:12.832Z,97955.00
2023-03-27T05:33:39.728Z,97965.00
2023-03-27T05:36:07.255Z,97968.00
2023-03-27T05:38:34.126Z,97967.00
2023-03-27T05:41:01.014Z,97967.00
2023-03-27T05:43:28.093Z,97961.00
2023-03-27T05:45:55.035Z,97957.00
2023-03-27T05:48:21.965Z,97958.00
2023-03-27T05:50:48.967Z,97980.00
2023-03-27T05:53:15.950Z,97972.00
2023-03-27T05:55:42.912Z,97986.00
2023-03-27T05:58:10.284Z,97972.00
2023-03-27T06:00:37.936Z,97979.00
2023-03-27T06:03:04.982Z,97996.00
2023-03-27T06:05:32.130Z,97987.00
2023-03-27T06:07:59.099Z,98002.00
2023-03-27T06:10:29.869Z,97990.00
2023-03-27T06:13:08.682Z,97993.00
2023-03-27T06:15:39.184Z,97994.00
2023-03-27T06:18:06.281Z,97984.00
2023-03-27T06:20:33.233Z,97996.00
2023-03-27T06:23:00.672Z,98000.00
2023-03-27T06:25:28.886Z,98005.00
2023-03-27T06:27:55.850Z,98007.00
2023-03-27T06:30:24.015Z,98028.00
2023-03-27T06:32:53.237Z,98030.00
2023-03-27T06:35:21.047Z,98018.00
2023-03-27T06:37:50.826Z,98047.00
2023-03-27T06:40:23.320Z,98047.00
2023-03-27T06:43:02.095Z,98045.00
2023-03-27T06:45:43.135Z,98054.00
2023-03-27T06:48:18.797Z,98004.00
2023-03-27T06:50:49.052Z,98004.00
2023-03-27T06:53:25.907Z,98028.00
2023-03-27T06:55:54.018Z,98058.00
2023-03-27T06:58:20.948Z,98002.00
2023-03-27T07:00:48.070Z,98032.00
2023-03-27T07:03:14.938Z,98035.00
2023-03-27T07:05:41.928Z,98039.00
2023-03-27T07:10:44.037Z,98036.00
2023-03-27T07:13:10.975Z,98029.00
2023-03-27T07:15:37.856Z,98048.00
2023-03-27T07:18:06.413Z,98036.00
2023-03-27T07:20:34.013Z,98024.00
2023-03-27T07:23:01.350Z,98024.00
2023-03-27T07:25:30.453Z,98028.00
2023-03-27T07:28:00.649Z,98004.00
2023-03-27T07:30:28.188Z,97979.00
2023-03-27T07:32:55.196Z,97977.00
2023-03-27T07:35:22.235Z,97978.00
2023-03-27T07:37:49.177Z,97987.00
2023-03-27T07:40:17.307Z,97984.00
2023-03-27T07:42:45.645Z,97972.00
2023-03-27T07:45:13.443Z,97980.00
2023-03-27T07:47:42.100Z,97971.00
2023-03-27T07:50:13.108Z,97963.00
2023-03-27T07:52:40.218Z,98002.00
2023-03-27T07:55:08.211Z,98005.00
2023-03-27T07:57:59.307Z,98006.00
2023-03-27T08:00:28.197Z,98011.00
2023-03-27T08:03:08.351Z,98023.00
2023-03-27T08:05:36.472Z,98014.00
2023-03-27T08:08:03.978Z,98013.00
2023-03-27T08:10:30.953Z,98027.00
2023-03-27T08:12:57.896Z,98023.00
2023-03-27T08:15:25.325Z,98021.00
2023-03-27T08:17:52.818Z,98023.00
2023-03-27T08:20:20.628Z,98026.00
2023-03-27T08:22:47.526Z,98041.00
2023-03-27T08:25:14.460Z,98040.00
2023-03-27T08:27:41.405Z,98021.00
2023-03-27T08:30:09.507Z,98010.00
2023-03-27T08:32:36.422Z,98030.00
2023-03-27T08:35:05.174Z,98031.00
2023-03-27T08:37:32.160Z,98043.00
2023-03-27T08:39:59.104Z,98059.00
2023-03-27T08:42:36.450Z,98061.00
2023-03-27T08:45:19.705Z,98077.00
2023-03-27T08:47:52.105Z,98084.00
2023-03-27T08:50:34.287Z,98105.00
2023-03-27T08:53:01.474Z,98107.00
2023-03-27T08:55:42.013Z,98123.00
2023-03-27T08:58:20.163Z,98122.00
2023-03-27T09:01:02.819Z,98126.00
2023-03-27T09:04:13.281Z,98125.00
2023-03-27T09:07:01.390Z,98137.00
2023-03-27T09:10:05.664Z,98137.00
2023-03-27T09:13:06.281Z,98139.00
2023-03-27T09:15:36.969Z,98137.00
2023-03-27T09:18:35.639Z,98160.00
2023-03-27T09:21:36.046Z,98157.00
2023-03-27T09:24:06.411Z,98169.00
2023-03-27T09:26:35.877Z,98158.00
2023-03-27T09:29:19.974Z,98187.00
2023-03-27T09:31:50.946Z,98197.00
2023-03-27T09:34:30.809Z,98207.00
2023-03-27T09:37:00.894Z,98212.00
2023-03-27T09:39:33.215Z,98216.00
2023-03-27T09:42:22.598Z,98216.00
2023-03-27T09:44:56.281Z,98230.00
2023-03-27T09:48:04.725Z,98230.00
2023-03-27T09:50:45.726Z,98246.00
2023-03-27T09:53:17.929Z,98249.00
2023-03-27T09:55:59.297Z,98263.00
2023-03-27T09:58:26.872Z,98269.00
2023-03-27T10:01:16.872Z,98273.00
2023-03-27T10:03:51.450Z,98263.00
2023-03-27T10:06:36.798Z,98272.00
2023-03-27T10:09:19.529Z,98296.00
2023-03-27T10:11:46.525Z,98290.00
2023-03-27T10:14:16.614Z,98266.00
2023-03-27T10:16:43.592Z,98275.00
2023-03-27T10:19:29.586Z,98296.00
2023-03-27T10:21:56.756Z,98274.00
2023-03-27T10:24:35.597Z,98260.00
2023-03-27T10:27:07.930Z,98287.00
2023-03-27T10:29:36.768Z,98272.00
2023-03-27T10:32:05.676Z,98278.00
2023-03-27T10:34:58.966Z,98281.00
2023-03-27T10:37:31.251Z,98293.00
2023-03-27T10:40:01.112Z,98288.00
2023-03-27T10:42:30.061Z,98280.00
2023-03-27T10:44:57.088Z,98271.00
2023-03-27T10:47:30.494Z,98285.00
2023-03-27T10:50:14.987Z,98282.00
2023-03-27T10:53:06.046Z,98278.00
2023-03-27T10:55:37.908Z,98267.00
2023-03-27T10:58:22.941Z,98268.00
2023-03-27T11:01:08.728Z,98290.00
2023-03-27T11:03:55.061Z,98290.00
2023-03-27T11:06:22.373Z,98281.00
2023-03-27T11:09:25.964Z,98275.00
2023-03-27T11:11:58.257Z,98266.00
2023-03-27T11:14:32.178Z,98280.00
2023-03-27T11:17:00.541Z,98281.00
2023-03-27T11:19:53.330Z,98286.00
2023-03-27T11:22:45.952Z,98267.00
2023-03-27T11:25:42.145Z,98270.00
2023-03-27T11:28:56.483Z,98281.00
2023-03-27T11:31:42.802Z,98273.00
2023-03-27T11:35:02.027Z,98267.00
2023-03-27T11:37:39.456Z,98282.00
2023-03-27T11:40:24.546Z,98290.00
2023-03-27T11:42:51.496Z,98285.00
2023-03-27T11:45:23.231Z,98293.00
2023-03-27T11:48:11.381Z,98284.00
2023-03-27T11:50:53.357Z,98305.00
2023-03-27T11:53:29.831Z,98293.00
2023-03-27T11:56:09.559Z,98296.00
2023-03-27T11:59:37.534Z,98313.00
2023-03-27T12:02:28.864Z,98312.00
2023-03-27T12:05:20.160Z,98320.00
2023-03-27T12:08:22.642Z,98321.00
2023-03-27T12:10:49.884Z,98318.00
2023-03-27T12:14:01.056Z,98324.00
2023-03-27T12:16:36.955Z,98332.00
2023-03-27T12:19:38.230Z,98310.00
2023-03-27T12:22:22.858Z,98315.00
2023-03-27T12:25:28.708Z,98318.00
2023-03-27T12:28:41.141Z,98311.00
2023-03-27T12:31:48.073Z,98323.00
2023-03-27T12:34:52.159Z,98316.00
2023-03-27T12:40:00.885Z,98316.00
2023-03-27T12:42:48.987Z,98310.00
2023-03-27T12:45:23.241Z,98305.00
2023-03-27T12:48:09.114Z,98310.00
2023-03-27T12:50:45.045Z,98281.00
2023-03-27T12:53:27.186Z,98287.00
2023-03-27T12:56:19.015Z,98286.00
2023-03-27T12:58:47.914Z,98295.00
2023-03-27T13:01:51.805Z,98287.00
2023-03-27T13:05:27.499Z,98289.00
2023-03-27T13:08:18.566Z,98301.00
2023-03-27T13:11:09.928Z,98294.00
2023-03-27T13:14:10.693Z,98296.00
2023-03-27T13:17:11.014Z,98300.00
2023-03-27T13:19:53.447Z,98310.00
2023-03-27T13:22:52.984Z,98316.00
2023-03-27T13:25:34.646Z,98317.00
2023-03-27T13:28:37.122Z,98313.00
2023-03-27T13:31:06.703Z,98319.00
2023-03-27T13:33:33.553Z,98308.00
2023-03-27T13:36:21.670Z,98305.00
2023-03-27T13:38:51.398Z,98318.00
2023-03-27T13:41:40.053Z,98325.00
2023-03-27T13:44:26.534Z,98319.00
2023-03-27T13:47:02.795Z,98350.00
2023-03-27T13:50:14.735Z,98336.00
2023-03-27T13:53:12.219Z,98351.00
2023-03-27T13:55:54.246Z,98361.00
2023-03-27T13:59:19.710Z,98353.00
2023-03-27T14:02:06.560Z,98354.00
2023-03-27T14:04:52.393Z,98345.00
2023-03-27T14:07:54.392Z,98339.00
2023-03-27T14:11:03.878Z,98369.00
2023-03-27T14:13:54.023Z,98367.00
2023-03-27T14:16:29.790Z,98356.00
2023-03-27T14:19:35.142Z,98356.00
2023-03-27T14:22:45.131Z,98350.00
2023-03-27T14:25:21.300Z,98338.00
2023-03-27T14:27:54.325Z,98342.00
2023-03-27T14:30:24.048Z,98357.00
2023-03-27T14:32:50.984Z,98348.00
2023-03-27T14:35:40.317Z,98340.00
2023-03-27T14:38:28.973Z,98364.00
2023-03-27T14:41:06.608Z,98373.00
2023-03-27T14:43:33.853Z,98366.00
2023-03-27T14:46:03.907Z,98383.00
2023-03-27T14:48:38.983Z,98393.00
2023-03-27T14:51:17.602Z,98391.00
2023-03-27T14:53:45.287Z,98401.00
2023-03-27T14:56:41.433Z,98402.00
2023-03-27T14:59:25.237Z,98426.00
2023-03-27T15:01:54.356Z,98424.00
2023-03-27T15:04:21.285Z,98427.00
2023-03-27T15:06:48.185Z,98436.00
2023-03-27T15:09:17.312Z,98430.00
2023-03-27T15:11:48.204Z,98426.00
2023-03-27T15:14:24.216Z,98437.00
2023-03-27T15:16:57.260Z,98464.00
2023-03-27T15:19:36.469Z,98470.00
2023-03-27T15:22:06.796Z,98469.00
2023-03-27T15:24:40.719Z,98477.00
2023-03-27T15:27:13.153Z,98477.00
2023-03-27T15:29:46.913Z,98490.00
2023-03-27T15:32:15.727Z,98495.00
2023-03-27T15:34:44.836Z,98510.00
2023-03-27T15:37:19.279Z,98514.00
2023-03-27T15:40:23.001Z,98511.00
2023-03-27T15:42:54.498Z,98520.00
2023-03-27T15:45:36.873Z,98511.00
2023-03-27T15:48:18.085Z,98530.00
2023-03-27T15:51:05.721Z,98511.00
2023-03-27T15:53:40.264Z,98524.00
2023-03-27T15:56:41.882Z,98544.00
2023-03-27T15:59:11.078Z,98541.00
2023-03-27T16:01:40.379Z,98537.00
2023-03-27T16:04:15.214Z,98529.00
2023-03-27T16:06:47.551Z,98541.00
2023-03-27T16:09:32.467Z,98550.00
2023-03-27T16:11:59.647Z,98558.00
2023-03-27T16:14:44.075Z,98560.00
2023-03-27T16:17:14.084Z,98570.00
2023-03-27T16:20:02.768Z,98564.00
2023-03-27T16:22:36.691Z,98561.00
2023-03-27T16:25:11.367Z,98558.00
2023-03-27T16:27:49.641Z,98568.00
2023-03-27T16:30:37.060Z,98579.00
2023-03-27T16:33:15.339Z,98575.00
2023-03-27T16:35:42.880Z,98583.00
2023-03-27T16:38:09.829Z,98589.00
2023-03-27T16:40:36.738Z,98596.00
2023-03-27T16:43:03.630Z,98612.00
2023-03-27T16:45:30.553Z,98612.00
2023-03-27T16:47:57.487Z,98601.00
2023-03-27T16:50:25.612Z,98621.00
2023-03-27T16:52:52.799Z,98627.00
2023-03-27T16:55:19.836Z,98634.00
2023-03-27T16:57:46.897Z,98616.00
2023-03-27T17:00:15.276Z,98633.00
2023-03-27T17:02:42.279Z,98633.00
2023-03-27T17:05:09.669Z,98653.00
2023-03-27T17:07:36.603Z,98652.00
2023-03-27T17:10:04.071Z,98667.00
2023-03-27T17:12:30.930Z,98646.00
2023-03-27T17:14:57.848Z,98656.00
2023-03-27T17:17:24.744Z,98675.00
2023-03-27T17:19:51.669Z,98693.00
2023-03-27T17:22:18.626Z,98690.00
2023-03-27T17:24:56.209Z,98694.00
2023-03-27T17:27:25.042Z,98703.00
2023-03-27T17:29:51.990Z,98720.00
2023-03-27T17:32:18.895Z,98708.00
2023-03-27T17:34:45.841Z,98727.00
2023-03-27T17:37:12.772Z,98733.00
2023-03-27T17:39:39.806Z,98735.00
2023-03-27T17:42:06.870Z,98745.00
2023-03-27T17:44:33.847Z,98745.00
2023-03-27T17:47:00.997Z,98754.00
2023-03-27T17:49:28.100Z,98755.00
2023-03-27T17:51:55.075Z,98758.00
2023-03-27T17:54:21.988Z,98771.00
2023-03-27T17:56:49.055Z,98773.00
2023-03-27T17:59:16.038Z,98786.00
2023-03-27T18:01:45.310Z,98796.00
2023-03-27T18:04:12.432Z,98798.00
2023-03-27T18:06:39.401Z,98812.00
2023-03-27T18:09:06.470Z,98809.00
2023-03-27T18:11:33.402Z,98805.00
2023-03-27T18:14:00.384Z,98824.00
2023-03-27T18:16:27.486Z,98806.00
2023-03-27T18:18:54.489Z,98823.00
2023-03-27T18:21:21.811Z,98824.00
2023-03-27T18:23:48.825Z,98832.00
2023-03-27T18:26:16.016Z,98822.00
2023-03-27T18:28:43.014Z,98830.00
2023-03-27T18:31:11.430Z,98839.00
2023-03-27T18:33:38.526Z,98826.00
2023-03-27T18:36:06.257Z,98837.00
2023-03-27T18:38:33.277Z,98836.00
2023-03-27T18:41:00.397Z,98830.00
2023-03-27T18:43:27.619Z,98837.00
2023-03-27T18:45:59.282Z,98841.00
2023-03-27T18:48:26.840Z,98838.00
2023-03-27T18:51:01.962Z,98836.00
2023-03-27T18:53:29.303Z,98833.00
2023-03-27T18:55:56.489Z,98853.00
2023-03-27T18:58:23.636Z,98855.00
2023-03-27T19:00:51.249Z,98845.00
2023-03-27T19:03:20.090Z,98852.00
2023-03-27T19:05:50.648Z,98864.00
2023-03-27T19:08:19.022Z,98860.00
2023-03-27T19:10:46.039Z,98848.00
2023-03-27T19:13:13.094Z,98858.00
2023-03-27T19:15:40.470Z,98867.00
2023-03-27T19:18:07.560Z,98874.00
2023-03-27T19:20:34.607Z,98883.00
2023-03-27T19:23:01.649Z,98883.00
2023-03-27T19:25:28.686Z,98892.00
2023-03-27T19:27:56.604Z,98898.00
2023-03-27T19:30:24.033Z,98906.00
2023-03-27T19:32:51.292Z,98910.00
2023-03-27T19:35:18.433Z,98929.00
2023-03-27T19:37:45.652Z,98929.00
2023-03-27T19:40:13.601Z,98935.00
2023-03-27T19:42:40.581Z,98951.00
2023-03-27T19:45:08.389Z,98951.00
2023-03-27T19:47:35.788Z,98961.00
2023-03-27T19:50:03.056Z,98966.00
2023-03-27T19:52:30.324Z,98972.00
2023-03-27T19:54:57.322Z,98973.00
2023-03-27T19:57:24.462Z,98969.00
2023-03-27T19:59:51.544Z,98977.00
2023-03-27T20:02:18.589Z,98983.00
2023-03-27T20:04:45.585Z,98982.00
2023-03-27T20:07:12.515Z,98983.00
2023-03-27T20:09:39.472Z,98986.00
2023-03-27T20:12:07.292Z,98985.00
2023-03-27T20:14:34.352Z,98972.00
2023-03-27T20:17:01.339Z,98987.00
2023-03-27T20:19:28.396Z,98993.00
2023-03-27T20:21:55.444Z,98984.00
2023-03-27T20:24:22.460Z,98995.00
2023-03-27T20:26:50.940Z,99008.00
2023-03-27T20:29:20.416Z,98996.00
2023-03-27T20:31:47.784Z,99016.00
2023-03-27T20:34:14.996Z,99020.00
2023-03-27T20:36:41.965Z,99021.00
2023-03-27T20:39:09.085Z,99027.00
2023-03-27T20:41:36.432Z,99019.00
2023-03-27T20:44:03.573Z,99035.00
2023-03-27T20:46:30.731Z,99029.00
2023-03-27T20:48:57.862Z,99053.00
2023-03-27T20:51:25.116Z,99058.00
2023-03-27T20:53:52.277Z,99056.00
2023-03-27T20:56:19.261Z,99060.00
2023-03-27T20:58:46.222Z,99062.00
2023-03-27T21:01:13.320Z,99066.00
2023-03-27T21:03:41.926Z,99063.00
2023-03-27T21:06:19.849Z,99051.00
2023-03-27T21:08:47.390Z,99060.00
2023-03-27T21:11:14.568Z,99063.00
2023-03-27T21:13:41.599Z,99072.00
2023-03-27T21:16:08.874Z,99054.00
2023-03-27T21:18:35.930Z,99075.00
2023-03-27T21:21:03.015Z,99075.00
2023-03-27T21:23:30.059Z,99072.00
2023-03-27T21:25:57.800Z,99059.00
2023-03-27T21:28:24.931Z,99070.00
2023-03-27T21:30:52.145Z,99067.00
2023-03-27T21:33:19.125Z,99085.00
2023-03-27T21:35:47.271Z,99083.00
2023-03-27T21:38:15.121Z,99089.00
2023-03-27T21:40:42.155Z,99092.00
2023-03-27T21:43:09.172Z,99097.00
2023-03-27T21:45:36.599Z,99098.00
2023-03-27T21:48:03.911Z,99095.00
2023-03-27T21:50:31.082Z,99109.00
2023-03-27T21:52:58.171Z,99110.00
2023-03-27T21:55:25.063Z,99098.00
2023-03-27T21:57:52.015Z,99105.00
2023-03-27T22:00:19.510Z,99125.00
2023-03-27T22:02:46.659Z,99131.00
2023-03-27T22:05:13.714Z,99128.00
2023-03-27T22:07:40.701Z,99131.00
2023-03-27T22:10:08.225Z,99137.00
2023-03-27T22:12:36.540Z,99150.00
2023-03-27T22:15:04.555Z,99147.00
2023-03-27T22:17:31.588Z,99146.00
2023-03-27T22:19:58.600Z,99130.00
2023-03-27T22:22:25.607Z,99146.00
2023-03-27T22:24:52.579Z,99146.00
2023-03-27T22:27:21.625Z,99170.00
2023-03-27T22:29:48.592Z,99166.00
2023-03-27T22:32:15.619Z,99170.00
2023-03-27T22:34:42.581Z,99182.00
2023-03-27T22:37:09.520Z,99175.00
2023-03-27T22:39:36.507Z,99175.00
2023-03-27T22:42:03.588Z,99172.00
2023-03-27T22:44:30.704Z,99186.00
2023-03-27T22:46:58.947Z,99197.00
2023-03-27T22:49:26.446Z,99203.00
2023-03-27T22:51:53.465Z,99198.00
2023-03-27T22:54:20.511Z,99212.00
2023-03-27T22:56:47.628Z,99214.00
2023-03-27T22:59:14.877Z,99215.00
2023-03-27T23:01:41.960Z,99215.00
2023-03-27T23:04:09.099Z,99223.00
2023-03-27T23:06:36.123Z,99223.00
2023-03-27T23:09:03.425Z,99232.00
2023-03-27T23:11:30.438Z,99252.00
2023-03-27T23:13:57.384Z,99256.00
2023-03-27T23:16:24.481Z,99246.00
2023-03-27T23:18:51.416Z,99266.00
2023-03-27T23:21:18.637Z,99265.00
2023-03-27T23:23:45.655Z,99292.00
2023-03-27T23:26:12.682Z,99295.00
2023-03-27T23:28:41.278Z,99308.00
2023-03-27T23:31:15.591Z,99310.00
2023-03-27T23:33:45.099Z,99312.00
2023-03-27T23:36:23.205Z,99309.00
2023-03-27T23:38:50.796Z,99311.00
2023-03-27T23:41:17.962Z,99315.00
2023-03-27T23:43:44.990Z,99342.00
2023-03-27T23:46:12.224Z,99357.00
2023-03-27T23:48:40.641Z,99357.00
2023-03-27T23:51:07.946Z,99365.00
2023-03-27T23:53:35.003Z,99375.00
2023-03-27T23:56:02.304Z,99372.00
2023-03-27T23:58:29.948Z,99382.00
